Time;durP1;ratioP1;P1;durP2;ratioP2;P2;SDS_P1;SDS_P2;PMS_P1;PMS_P2;Temp;Humidity;BMP_temperature;BMP_pressure;BME280_temperature;BME280_humidity;BME280_pressure;Samples;Min_cycle;Max_cycle;Signal;HPM_P1;HPM_P2
2024/01/03 00:00:21;;;;;;;14.80;8.43;;;;;;;5.32;100.00;63485.91;5030382;28;20198;-55
2024/01/03 00:02:47;;;;;;;13.93;8.27;;;;;;;4.98;100.00;63446.97;5030194;28;20240;-56
2024/01/03 00:05:13;;;;;;;13.30;8.07;;;;;;;5.04;100.00;63453.50;5030161;28;20238;-55
2024/01/03 00:07:40;;;;;;;15.50;7.80;;;;;;;5.28;100.00;63483.50;5030054;28;20241;-59
2024/01/03 00:10:40;;;;;;;12.40;7.20;;;;;;;5.19;100.00;63473.72;5030144;28;20190;-65
2024/01/03 00:13:34;;;;;;;15.93;9.37;;;;;;;4.83;100.00;63435.06;5028631;28;20652;-56
2024/01/03 00:15:59;;;;;;;14.60;8.57;;;;;;;5.03;100.00;63454.91;5030030;28;20280;-54
2024/01/03 00:18:41;;;;;;;14.20;8.37;;;;;;;4.97;100.00;63448.38;5032792;28;20566;-53
2024/01/03 00:21:09;;;;;;;14.70;9.70;;;;;;;5.00;100.00;63448.59;5033511;28;20194;-54
2024/01/03 00:23:43;;;;;;;17.73;10.97;;;;;;;5.06;100.00;63458.16;5015733;28;20336;-53
2024/01/03 00:26:10;;;;;;;17.17;11.23;;;;;;;4.86;100.00;63433.38;5031644;28;20185;-53
2024/01/03 00:28:36;;;;;;;15.80;9.13;;;;;;;5.16;100.00;63468.50;5033227;28;20202;-55
2024/01/03 00:31:02;;;;;;;22.80;12.10;;;;;;;5.09;100.00;63461.44;5033378;28;20201;-54
2024/01/03 00:33:28;;;;;;;17.17;9.63;;;;;;;5.14;100.00;63466.31;5033401;28;20214;-54
2024/01/03 00:35:54;;;;;;;18.10;10.83;;;;;;;4.83;100.00;63435.63;5015656;28;20601;-55
2024/01/03 00:38:19;;;;;;;15.87;9.97;;;;;;;4.82;100.00;63432.06;5030127;28;20754;-54
2024/01/03 00:40:52;;;;;;;20.73;11.20;;;;;;;4.85;100.00;63432.25;5031167;28;20300;-55
2024/01/03 00:43:17;;;;;;;21.13;10.70;;;;;;;4.87;100.00;63436.94;5032163;28;20308;-54
2024/01/03 00:45:43;;;;;;;18.40;11.07;;;;;;;5.06;100.00;63457.63;5032417;28;20712;-54
2024/01/03 00:48:09;;;;;;;18.30;10.17;;;;;;;4.84;100.00;63434.22;5033047;28;20214;-55
2024/01/03 00:50:34;;;;;;;18.70;10.73;;;;;;;4.96;100.00;63447.28;5032968;28;20198;-54
2024/01/03 00:53:00;;;;;;;17.20;10.93;;;;;;;4.99;100.00;63450.00;5015133;28;20296;-54
2024/01/03 00:55:25;;;;;;;18.50;10.07;;;;;;;4.50;100.00;63394.75;5033035;28;20251;-54
2024/01/03 00:57:51;;;;;;;18.07;10.43;;;;;;;4.48;100.00;63395.06;5032703;28;20202;-57
2024/01/03 01:00:17;;;;;;;17.27;10.07;;;;;;;4.54;100.00;63399.09;5032838;28;20194;-53
2024/01/03 01:02:44;;;;;;;18.63;10.53;;;;;;;4.25;100.00;63370.03;5032879;28;20698;-53
2024/01/03 01:05:10;;;;;;;16.43;9.97;;;;;;;4.76;100.00;63424.97;5032856;28;20196;-54
2024/01/03 01:07:36;;;;;;;15.93;9.70;;;;;;;4.82;100.00;63429.56;5032574;28;20292;-54
2024/01/03 01:10:01;;;;;;;15.40;10.37;;;;;;;4.96;100.00;63447.28;5014879;28;20201;-56
2024/01/03 01:12:27;;;;;;;19.10;10.83;;;;;;;5.10;100.00;63461.97;5032651;28;20684;-54
2024/01/03 01:14:52;;;;;;;18.47;9.70;;;;;;;5.00;100.00;63451.66;5032595;28;20735;-55
2024/01/03 01:17:18;;;;;;;18.93;10.03;;;;;;;4.93;100.00;63444.00;5032439;28;20254;-54
2024/01/03 01:19:43;;;;;;;17.17;9.17;;;;;;;4.68;100.00;63416.81;5032609;28;20248;-54
2024/01/03 01:22:09;;;;;;;15.50;10.07;;;;;;;5.02;100.00;63453.81;5031182;28;20296;-55
2024/01/03 01:24:34;;;;;;;15.77;8.67;;;;;;;5.34;100.00;63485.06;5032844;28;20555;-54
2024/01/03 01:27:00;;;;;;;16.73;9.33;;;;;;;5.39;100.00;63493.56;5032206;28;20655;-54
2024/01/03 01:29:26;;;;;;;15.57;9.47;;;;;;;5.35;100.00;63486.16;5031994;28;20194;-54
2024/01/03 01:31:51;;;;;;;15.03;9.10;;;;;;;5.32;100.00;63483.44;5032193;28;20214;-54
2024/01/03 01:34:17;;;;;;;15.27;8.67;;;;;;;5.46;100.00;63500.63;5032539;28;20194;-53
2024/01/03 01:36:43;;;;;;;11.57;8.40;;;;;;;5.56;100.00;63511.50;5032228;28;20178;-54
2024/01/03 01:39:09;;;;;;;14.17;8.40;;;;;;;5.44;100.00;63495.94;5032247;28;20225;-55
2024/01/03 01:41:35;;;;;;;17.70;10.53;;;;;;;4.79;100.00;63428.78;5032140;28;20208;-55
2024/01/03 01:44:00;;;;;;;14.83;8.73;;;;;;;5.29;100.00;63482.13;5032308;28;20186;-54
2024/01/03 01:46:26;;;;;;;19.43;9.03;;;;;;;5.04;100.00;63453.50;5032097;28;20213;-53
2024/01/03 01:48:53;;;;;;;16.23;8.67;;;;;;;4.94;100.00;63442.63;5031907;28;20204;-53
2024/01/03 01:51:19;;;;;;;13.17;8.67;;;;;;;4.98;100.00;63446.97;5032102;28;20185;-54
2024/01/03 01:53:44;;;;;;;13.73;8.80;;;;;;;4.77;100.00;63426.59;5032215;28;20294;-53
2024/01/03 01:56:11;;;;;;;14.87;7.90;;;;;;;5.21;100.00;63473.41;5032090;28;20214;-54
2024/01/03 01:58:40;;;;;;;16.17;9.27;;;;;;;4.83;100.00;63432.59;5030539;28;20273;-54
2024/01/03 02:01:06;;;;;;;13.00;8.43;;;;;;;5.07;100.00;63459.25;5031926;28;20193;-53
2024/01/03 02:03:33;;;;;;;15.50;9.07;;;;;;;4.54;100.00;63401.59;5014116;28;20600;-53
2024/01/03 02:05:59;;;;;;;13.77;8.50;;;;;;;5.00;100.00;63446.09;5031937;28;20196;-55
2024/01/03 02:08:25;;;;;;;15.03;8.87;;;;;;;5.10;100.00;63462.53;5014293;28;20693;-53
2024/01/03 02:10:51;;;;;;;12.43;7.87;;;;;;;5.21;100.00;63471.47;5031880;28;20186;-52
2024/01/03 02:13:17;;;;;;;13.53;8.67;;;;;;;4.96;100.00;63444.78;5031785;28;20229;-53
2024/01/03 02:15:42;;;;;;;13.23;8.90;;;;;;;4.73;100.00;63422.25;5031583;28;20574;-54
2024/01/03 02:18:08;;;;;;;13.70;8.90;;;;;;;4.90;100.00;63437.72;5031769;28;20286;-56
2024/01/03 02:20:36;;;;;;;14.57;8.80;;;;;;;5.00;100.00;63453.59;5031545;28;20224;-53
2024/01/03 02:23:02;;;;;;;13.57;8.37;;;;;;;5.14;100.00;63466.31;5031421;28;20711;-54
2024/01/03 02:25:27;;;;;;;13.50;8.50;;;;;;;4.66;100.00;63411.59;5031445;28;20194;-54
2024/01/03 02:27:53;;;;;;;13.83;8.77;;;;;;;4.91;100.00;63441.84;5031397;28;20201;-56
2024/01/03 02:30:18;;;;;;;12.97;8.57;;;;;;;5.07;100.00;63456.75;5031387;28;20668;-54
2024/01/03 02:32:44;;;;;;;10.03;8.17;;;;;;;5.20;100.00;63474.81;5031615;28;20202;-55
2024/01/03 02:35:09;;;;;;;13.10;8.63;;;;;;;5.10;100.00;63460.03;5031230;28;20595;-54
2024/01/03 02:37:35;;;;;;;11.37;7.70;;;;;;;5.18;100.00;63470.69;5031218;28;20267;-55
2024/01/03 02:40:01;;;;;;;13.70;8.37;;;;;;;5.26;100.00;63476.34;5030774;28;20222;-53
2024/01/03 02:42:26;;;;;;;11.17;7.30;;;;;;;5.29;100.00;63479.63;5030612;28;20285;-55
2024/01/03 02:44:52;;;;;;;10.87;7.70;;;;;;;5.42;100.00;63496.81;5031378;28;20628;-55
2024/01/03 02:47:17;;;;;;;13.30;7.90;;;;;;;5.22;100.00;63474.50;5031204;28;20198;-55
2024/01/03 02:49:42;;;;;;;14.53;8.70;;;;;;;5.24;100.00;63474.16;5031094;28;20745;-54
2024/01/03 02:52:08;;;;;;;13.10;8.33;;;;;;;5.25;100.00;63477.75;5031023;28;20198;-52
2024/01/03 02:54:33;;;;;;;14.00;8.63;;;;;;;5.29;100.00;63482.13;5031339;28;20672;-54
2024/01/03 02:56:59;;;;;;;13.77;8.83;;;;;;;5.33;100.00;63486.47;5031091;28;20210;-54
2024/01/03 02:59:25;;;;;;;9.80;7.47;;;;;;;5.42;100.00;63494.31;5031356;28;20202;-59
2024/01/03 03:01:51;;;;;;;13.13;9.13;;;;;;;5.39;100.00;63495.50;5030879;28;20219;-57
2024/01/03 03:04:17;;;;;;;14.17;9.20;;;;;;;5.63;100.00;63521.63;5031153;28;20182;-57
2024/01/03 03:06:42;;;;;;;13.17;8.43;;;;;;;5.69;100.00;63525.66;5031013;28;20660;-54
2024/01/03 03:09:08;;;;;;;15.53;8.80;;;;;;;5.18;100.00;63467.63;5029211;28;20190;-52
2024/01/03 03:11:34;;;;;;;12.03;8.60;;;;;;;5.35;100.00;63488.66;5030466;28;20182;-54
2024/01/03 03:14:00;;;;;;;14.43;10.53;;;;;;;5.08;100.00;63457.31;5030762;28;20588;-53
2024/01/03 03:16:25;;;;;;;14.83;8.57;;;;;;;5.30;100.00;63483.75;5030508;28;20225;-53
2024/01/03 03:18:51;;;;;;;14.17;9.23;;;;;;;5.25;100.00;63480.25;5030997;28;20190;-54
2024/01/03 03:21:17;;;;;;;13.67;9.50;;;;;;;5.34;100.00;63487.56;5030763;28;20209;-54
2024/01/03 03:23:42;;;;;;;11.87;8.30;;;;;;;5.43;100.00;63497.34;5029523;28;20214;-58
2024/01/03 03:26:10;;;;;;;11.77;8.50;;;;;;;5.59;100.00;63512.84;5030801;28;20236;-54
2024/01/03 03:28:36;;;;;;;11.80;8.77;;;;;;;5.65;100.00;63519.38;5030773;28;20598;-55
2024/01/03 03:31:09;;;;;;;16.50;8.67;;;;;;;5.61;100.00;63514.47;5030591;28;20178;-55
2024/01/03 03:33:38;;;;;;;14.07;9.60;;;;;;;5.47;100.00;63499.75;5030804;28;20710;-55
2024/01/03 03:36:14;;;;;;;12.43;8.23;;;;;;;5.54;100.00;63509.31;5030427;28;20260;-55
2024/01/03 03:38:41;;;;;;;12.03;8.63;;;;;;;5.62;100.00;63521.09;5030635;28;20631;-54
2024/01/03 03:41:11;;;;;;;13.03;8.97;;;;;;;5.70;100.00;63529.78;5030500;28;20198;-54
2024/01/03 03:43:37;;;;;;;11.97;8.83;;;;;;;5.79;100.00;63537.09;5030679;28;20206;-53
2024/01/03 03:46:03;;;;;;;11.53;8.03;;;;;;;5.82;100.00;63537.88;5030408;28;20213;-53
2024/01/03 03:48:28;;;;;;;13.07;8.97;;;;;;;5.70;100.00;63526.75;5013002;28;20248;-56
2024/01/03 03:50:54;;;;;;;13.27;8.83;;;;;;;5.63;100.00;63519.13;5030464;28;20190;-55
2024/01/03 03:53:19;;;;;;;13.70;9.13;;;;;;;5.79;100.00;63537.09;5048200;22;20722;-55
2024/01/03 03:55:45;;;;;;;11.00;8.20;;;;;;;5.62;100.00;63518.59;5073777;28;20244;-55
2024/01/03 03:58:11;;;;;;;12.40;8.97;;;;;;;5.63;100.00;63517.19;5073697;28;20216;-55
2024/01/03 04:00:37;;;;;;;14.20;9.10;;;;;;;5.56;100.00;63514.00;5073619;28;20307;-55
2024/01/03 04:03:06;;;;;;;17.77;11.00;;;;;;;5.31;100.00;63481.78;5073670;28;20219;-56
2024/01/03 04:05:34;;;;;;;20.90;11.50;;;;;;;4.94;100.00;63447.06;5056456;28;20240;-55
2024/01/03 04:07:59;;;;;;;21.33;12.50;;;;;;;4.95;100.00;63445.63;5073592;28;20223;-55
2024/01/03 04:10:25;;;;;;;22.57;12.80;;;;;;;5.05;100.00;63456.53;5073612;28;20189;-58
2024/01/03 04:12:52;;;;;;;20.77;12.03;;;;;;;4.83;100.00;63437.56;5073544;28;20211;-54
2024/01/03 04:15:18;;;;;;;22.70;11.93;;;;;;;4.85;100.00;63435.31;5073292;28;20251;-54
2024/01/03 04:17:44;;;;;;;21.97;12.97;;;;;;;4.92;100.00;63440.44;5055592;28;20257;-55
2024/01/03 04:20:10;;;;;;;21.60;12.43;;;;;;;4.90;100.00;63438.25;5073506;28;20640;-55
2024/01/03 04:22:36;;;;;;;18.83;11.37;;;;;;;4.84;100.00;63434.22;5055169;28;20208;-55
2024/01/03 04:25:02;;;;;;;20.40;10.97;;;;;;;4.79;100.00;63426.28;5073399;28;20573;-55
2024/01/03 04:27:27;;;;;;;20.30;11.00;;;;;;;4.69;100.00;63417.34;5055460;28;20212;-56
2024/01/03 04:29:53;;;;;;;22.53;10.47;;;;;;;4.57;100.00;63404.28;5073521;28;20203;-56
2024/01/03 04:32:18;;;;;;;17.07;10.17;;;;;;;4.50;100.00;63394.19;5055116;28;20214;-56
2024/01/03 04:34:44;;;;;;;18.57;11.00;;;;;;;4.58;100.00;63405.41;5073322;28;20646;-54
2024/01/03 04:37:09;;;;;;;15.40;10.27;;;;;;;4.74;100.00;63423.34;5073534;28;20209;-54
2024/01/03 04:39:35;;;;;;;16.83;10.93;;;;;;;4.45;100.00;63391.78;5073141;28;20675;-55
2024/01/03 04:42:00;;;;;;;19.27;10.37;;;;;;;4.52;100.00;63396.94;5055146;28;20295;-55
2024/01/03 04:44:26;;;;;;;18.63;10.93;;;;;;;4.34;100.00;63379.84;5073442;28;20670;-55
2024/01/03 04:46:51;;;;;;;19.03;11.37;;;;;;;4.70;100.00;63419.00;5073081;28;20227;-55
2024/01/03 04:49:17;;;;;;;20.97;11.93;;;;;;;4.47;100.00;63393.97;5073493;28;20185;-55
2024/01/03 04:51:42;;;;;;;16.53;10.13;;;;;;;4.71;100.00;63420.06;5054828;28;20188;-54
2024/01/03 04:54:08;;;;;;;13.70;9.67;;;;;;;5.04;100.00;63455.44;5073145;28;20196;-53
2024/01/03 04:56:35;;;;;;;17.17;11.23;;;;;;;5.24;100.00;63477.22;5072720;28;20208;-54
2024/01/03 04:59:03;;;;;;;12.80;8.90;;;;;;;5.17;100.00;63469.59;5054833;28;20197;-58
2024/01/03 05:01:28;;;;;;;14.03;9.50;;;;;;;5.31;100.00;63484.84;5072592;28;20230;-54
2024/01/03 05:03:54;;;;;;;17.53;10.57;;;;;;;5.23;100.00;63476.13;5071613;28;20196;-52
2024/01/03 05:06:20;;;;;;;13.43;9.20;;;;;;;5.35;100.00;63486.16;5072628;28;20203;-55
2024/01/03 05:08:45;;;;;;;17.40;9.57;;;;;;;5.46;100.00;63498.13;5072925;28;20299;-57
2024/01/03 05:11:11;;;;;;;14.70;10.33;;;;;;;5.52;100.00;63507.69;5072754;28;20679;-55
2024/01/03 05:13:36;;;;;;;16.27;10.27;;;;;;;5.55;100.00;63508.47;5072662;28;20631;-55
2024/01/03 05:16:02;;;;;;;18.37;10.63;;;;;;;5.52;100.00;63507.69;5072386;28;20753;-55
2024/01/03 05:18:27;;;;;;;18.87;10.63;;;;;;;5.40;100.00;63492.13;5072609;28;20685;-55
2024/01/03 05:20:54;;;;;;;15.73;10.33;;;;;;;5.36;100.00;63489.72;5070755;28;20272;-55
2024/01/03 05:23:19;;;;;;;14.70;10.77;;;;;;;5.58;100.00;63511.19;5052173;28;20720;-55
2024/01/03 05:25:45;;;;;;;19.60;11.23;;;;;;;5.47;100.00;63499.75;5072019;28;20185;-54
2024/01/03 05:28:11;;;;;;;15.83;10.20;;;;;;;5.03;100.00;63454.34;5072095;28;20259;-55
2024/01/03 05:30:36;;;;;;;16.30;10.23;;;;;;;4.67;100.00;63415.72;5071544;28;20204;-57
2024/01/03 05:33:02;;;;;;;16.67;10.53;;;;;;;4.62;100.00;63407.81;5072133;28;20216;-55
2024/01/03 05:35:27;;;;;;;18.50;10.20;;;;;;;4.12;100.00;63356.44;5037743;28;20587;-58
2024/01/03 05:37:53;;;;;;;15.27;9.37;;;;;;;4.24;100.00;63369.50;5054192;28;20211;-60
2024/01/03 05:40:19;;;;;;;14.77;9.87;;;;;;;4.29;100.00;63374.41;5054231;28;20745;-58
2024/01/03 05:42:44;;;;;;;17.67;10.40;;;;;;;4.15;100.00;63356.69;5051921;28;20697;-54
2024/01/03 05:45:09;;;;;;;15.07;9.80;;;;;;;4.23;100.00;63370.38;5071926;28;20204;-54
2024/01/03 05:47:35;;;;;;;18.60;10.23;;;;;;;4.41;100.00;63384.41;5070651;28;20212;-56
2024/01/03 05:50:00;;;;;;;20.17;11.33;;;;;;;4.33;100.00;63376.25;5071227;28;20691;-55
2024/01/03 05:52:26;;;;;;;26.63;13.60;;;;;;;4.11;100.00;63352.34;5070006;28;20244;-55
2024/01/03 05:54:51;;;;;;;19.67;12.03;;;;;;;4.21;100.00;63366.25;5071206;28;20298;-55
2024/01/03 05:57:17;;;;;;;19.57;10.23;;;;;;;4.10;100.00;63353.75;5070414;28;20209;-55
2024/01/03 05:59:43;;;;;;;14.27;9.20;;;;;;;4.12;100.00;63355.91;5053524;28;20197;-55
2024/01/03 06:02:08;;;;;;;14.20;8.77;;;;;;;4.67;100.00;63415.19;5071967;28;20224;-57
2024/01/03 06:04:34;;;;;;;12.93;7.90;;;;;;;4.64;100.00;63412.47;5072041;28;20215;-54
2024/01/03 06:06:59;;;;;;;12.87;7.40;;;;;;;4.61;100.00;63406.69;5071600;28;20220;-58
2024/01/03 06:09:25;;;;;;;10.80;7.40;;;;;;;4.90;100.00;63440.75;5053607;28;20196;-55
2024/01/03 06:11:50;;;;;;;10.90;7.13;;;;;;;4.89;100.00;63436.63;5071719;28;20230;-55
2024/01/03 06:14:16;;;;;;;9.60;5.70;;;;;;;4.95;100.00;63448.13;5072072;28;20200;-54
2024/01/03 06:16:41;;;;;;;11.13;6.57;;;;;;;5.03;100.00;63454.91;5071145;28;20205;-56
2024/01/03 06:19:07;;;;;;;13.20;6.10;;;;;;;4.92;100.00;63437.94;5071738;28;20200;-55
2024/01/03 06:21:33;;;;;;;11.53;6.93;;;;;;;4.75;100.00;63424.44;5053586;28;20196;-56
2024/01/03 06:23:58;;;;;;;9.47;6.57;;;;;;;4.64;100.00;63411.91;5071691;28;20669;-55
2024/01/03 06:26:28;;;;;;;8.97;5.93;;;;;;;4.74;100.00;63425.84;5071345;28;20689;-60
2024/01/03 06:28:54;;;;;;;8.77;6.47;;;;;;;4.60;100.00;63407.56;5070112;28;20211;-54
2024/01/03 06:31:21;;;;;;;9.33;6.40;;;;;;;4.58;100.00;63405.94;5068414;28;20674;-54
2024/01/03 06:33:48;;;;;;;10.60;6.77;;;;;;;4.64;100.00;63409.97;5069206;28;20217;-53
2024/01/03 06:36:13;;;;;;;9.77;6.13;;;;;;;4.74;100.00;63420.31;5069851;28;20310;-54
2024/01/03 06:38:39;;;;;;;11.87;5.90;;;;;;;5.08;100.00;63460.34;5070834;28;20240;-55
2024/01/03 06:41:07;;;;;;;8.93;5.77;;;;;;;5.10;100.00;63462.53;5070698;28;20204;-54
2024/01/03 06:43:33;;;;;;;12.00;6.13;;;;;;;5.05;100.00;63454.56;5069488;28;20656;-54
2024/01/03 06:45:58;;;;;;;8.07;5.77;;;;;;;4.78;100.00;63427.69;5070824;28;20681;-57
2024/01/03 06:48:24;;;;;;;9.93;6.43;;;;;;;4.73;100.00;63421.69;5071033;28;20235;-53
2024/01/03 06:50:50;;;;;;;8.70;5.60;;;;;;;4.78;100.00;63427.16;5053014;28;20202;-54
2024/01/03 06:53:15;;;;;;;8.10;6.13;;;;;;;4.97;100.00;63450.31;5071009;28;20393;-54
2024/01/03 06:55:41;;;;;;;10.70;6.20;;;;;;;5.05;100.00;63454.03;5071017;28;20219;-56
2024/01/03 06:58:07;;;;;;;14.37;9.40;;;;;;;5.13;100.00;63465.78;5070961;28;20223;-58
2024/01/03 07:00:32;;;;;;;10.33;6.30;;;;;;;5.35;100.00;63489.19;5071327;28;20750;-56
2024/01/03 07:02:58;;;;;;;9.80;6.63;;;;;;;5.06;100.00;63455.69;5070754;28;20293;-54
2024/01/03 07:05:23;;;;;;;9.03;6.63;;;;;;;5.04;100.00;63456.00;5070901;28;20195;-55
2024/01/03 07:07:49;;;;;;;16.30;8.43;;;;;;;5.26;100.00;63478.84;5053162;28;20299;-54
2024/01/03 07:10:14;;;;;;;11.10;7.17;;;;;;;5.55;100.00;63508.47;5053053;28;20191;-55
2024/01/03 07:12:40;;;;;;;11.10;6.63;;;;;;;5.48;100.00;63500.84;5070665;28;20663;-55
2024/01/03 07:15:06;;;;;;;9.90;6.53;;;;;;;5.39;100.00;63491.06;5052891;28;20645;-55
2024/01/03 07:17:32;;;;;;;10.70;6.47;;;;;;;5.54;100.00;63509.88;5070620;28;20228;-56
2024/01/03 07:19:57;;;;;;;9.73;6.60;;;;;;;5.84;100.00;63539.53;5070621;28;20261;-55
2024/01/03 07:22:23;;;;;;;9.77;6.60;;;;;;;5.97;100.00;63556.19;5070381;28;20800;-54
2024/01/03 07:24:49;;;;;;;14.33;8.13;;;;;;;5.93;100.00;63549.31;5070926;28;20193;-55
2024/01/03 07:27:15;;;;;;;8.20;6.23;;;;;;;6.16;100.00;63576.88;5068938;28;20262;-55
2024/01/03 07:29:42;;;;;;;9.73;7.17;;;;;;;6.12;100.00;63572.53;5052029;28;20197;-56
2024/01/03 07:32:07;;;;;;;11.83;6.87;;;;;;;6.26;100.00;63584.75;5071696;28;20699;-55
2024/01/03 07:34:33;;;;;;;12.27;7.23;;;;;;;6.24;100.00;63582.56;5073420;28;20197;-55
2024/01/03 07:36:59;;;;;;;11.23;7.30;;;;;;;6.31;100.00;63588.22;5054612;28;20215;-55
2024/01/03 07:39:31;;;;;;;12.80;8.47;;;;;;;5.94;100.00;63552.91;5071052;28;20197;-55
2024/01/03 07:41:56;;;;;;;20.60;11.57;;;;;;;5.96;100.00;63555.09;5073904;28;20216;-54
2024/01/03 07:44:22;;;;;;;15.23;10.03;;;;;;;5.91;100.00;63547.69;5073953;28;20193;-56
2024/01/03 07:46:47;;;;;;;16.90;9.27;;;;;;;5.84;100.00;63539.53;5055920;28;20682;-55
2024/01/03 07:49:13;;;;;;;16.97;10.83;;;;;;;5.91;100.00;63547.16;5074254;28;20232;-56
2024/01/03 07:51:39;;;;;;;21.03;10.23;;;;;;;5.65;100.00;63521.88;5073756;28;20193;-57
2024/01/03 07:54:07;;;;;;;13.27;9.37;;;;;;;5.78;100.00;63535.47;5073547;28;20739;-55
2024/01/03 07:56:32;;;;;;;20.63;9.77;;;;;;;5.80;100.00;63535.69;5073547;28;20212;-60
2024/01/03 07:58:58;;;;;;;16.33;10.20;;;;;;;5.50;100.00;63502.47;5073669;28;20201;-57
2024/01/03 08:01:23;;;;;;;13.23;8.93;;;;;;;5.68;100.00;63524.56;5081830;22;20189;-55
2024/01/03 08:03:49;;;;;;;13.73;9.43;;;;;;;5.66;100.00;63522.94;5052912;28;20619;-54
2024/01/03 08:06:21;;;;;;;12.50;8.57;;;;;;;5.82;100.00;63539.81;5053713;28;20198;-55
2024/01/03 08:08:47;;;;;;;15.80;8.63;;;;;;;6.02;100.00;63558.59;5053421;28;20251;-56
2024/01/03 08:11:12;;;;;;;12.60;8.17;;;;;;;6.15;100.00;63573.28;5053577;28;20204;-59
2024/01/03 08:13:38;;;;;;;11.27;7.07;;;;;;;6.23;100.00;63582.00;5053609;28;20213;-56
2024/01/03 08:16:06;;;;;;;12.83;7.83;;;;;;;6.32;100.00;63596.81;5053429;28;20222;-56
2024/01/03 08:18:32;;;;;;;11.90;8.10;;;;;;;6.44;100.00;63607.41;5053351;28;20299;-54
2024/01/03 08:20:58;;;;;;;11.87;7.43;;;;;;;6.63;100.00;63630.63;5053424;28;20268;-55
2024/01/03 08:23:23;;;;;;;13.60;8.03;;;;;;;6.69;100.00;63634.09;5053217;28;20224;-55
2024/01/03 08:25:49;;;;;;;12.63;8.43;;;;;;;6.66;100.00;63630.84;5053501;28;20675;-53
2024/01/03 08:28:14;;;;;;;13.53;8.00;;;;;;;6.77;100.00;63638.38;5053259;28;20737;-54
2024/01/03 08:30:40;;;;;;;15.83;8.47;;;;;;;6.78;100.00;63641.97;5053140;28;20194;-54
2024/01/03 08:33:06;;;;;;;12.47;7.73;;;;;;;6.72;100.00;63634.88;5053221;28;20224;-57
2024/01/03 08:35:31;;;;;;;10.97;6.87;;;;;;;6.95;100.00;63661.91;5053018;28;20243;-56
2024/01/03 08:37:57;;;;;;;12.57;8.33;;;;;;;6.97;100.00;63664.09;5053262;28;20221;-56
2024/01/03 08:40:22;;;;;;;11.40;7.07;;;;;;;6.57;100.00;63621.56;5053006;28;20565;-55
2024/01/03 08:42:48;;;;;;;13.30;8.37;;;;;;;6.85;100.00;63648.50;5051635;28;20220;-57
2024/01/03 08:45:14;;;;;;;15.50;8.90;;;;;;;6.98;100.00;63660.72;5035517;28;20681;-55
2024/01/03 08:47:39;;;;;;;16.07;8.93;;;;;;;6.73;100.00;63638.47;5053056;28;20247;-56
2024/01/03 08:50:05;;;;;;;15.37;9.13;;;;;;;7.16;100.00;63685.38;5053033;28;20323;-55
2024/01/03 08:52:30;;;;;;;24.23;12.83;;;;;;;6.89;100.00;63655.38;5052828;28;20218;-54
2024/01/03 08:54:56;;;;;;;28.77;17.27;;;;;;;6.73;100.00;63635.97;5052759;28;20644;-54
2024/01/03 08:57:22;;;;;;;28.43;18.17;;;;;;;6.92;100.00;63656.13;5052602;28;20709;-54
2024/01/03 08:59:47;;;;;;;28.80;18.73;;;;;;;6.72;100.00;63637.94;5052665;28;20189;-54
2024/01/03 09:02:13;;;;;;;34.40;18.90;;;;;;;6.57;100.00;63618.50;5052963;28;20241;-55
2024/01/03 09:04:40;;;;;;;32.23;18.40;;;;;;;6.62;100.00;63626.47;5052642;28;20198;-56
2024/01/03 09:07:06;;;;;;;27.23;15.67;;;;;;;6.63;100.00;63627.56;5052980;28;20214;-60
2024/01/03 09:09:31;;;;;;;22.77;15.23;;;;;;;6.48;100.00;63609.28;5052743;28;20277;-55
2024/01/03 09:11:57;;;;;;;22.43;13.80;;;;;;;6.52;100.00;63613.63;5052761;28;20228;-54
2024/01/03 09:14:22;;;;;;;19.13;13.00;;;;;;;6.55;100.00;63616.34;5052591;28;20185;-56
2024/01/03 09:16:48;;;;;;;20.90;11.97;;;;;;;6.55;100.00;63616.88;5034304;28;20229;-55
2024/01/03 09:19:14;;;;;;;18.70;12.30;;;;;;;6.46;100.00;63607.09;5052659;28;20185;-54
2024/01/03 09:21:45;;;;;;;20.53;10.07;;;;;;;6.55;100.00;63616.88;5052295;28;20189;-54
2024/01/03 09:24:11;;;;;;;15.77;9.87;;;;;;;6.48;100.00;63611.78;5052376;28;20213;-55
2024/01/03 09:26:37;;;;;;;17.53;10.10;;;;;;;6.79;100.00;63645.56;5034527;28;20197;-55
2024/01/03 09:29:04;;;;;;;14.10;10.37;;;;;;;7.01;100.00;63668.47;5052137;28;20189;-54
2024/01/03 09:31:31;;;;;;;18.70;9.27;;;;;;;7.00;100.00;63665.41;5034012;28;20197;-55
2024/01/03 09:33:57;;;;;;;15.03;8.30;;;;;;;6.78;100.00;63644.47;5052096;28;20186;-57
2024/01/03 09:36:22;;;;;;;13.37;9.27;;;;;;;7.00;100.00;63667.91;5052082;28;20295;-56
2024/01/03 09:38:48;;;;;;;16.60;10.13;;;;;;;6.80;100.00;63643.59;5052220;28;20205;-55
2024/01/03 09:41:14;;;;;;;16.87;10.70;;;;;;;6.34;100.00;63595.97;5052170;28;20688;-55
2024/01/03 09:43:45;;;;;;;14.97;9.93;;;;;;;6.52;100.00;63613.06;5051933;28;20209;-60
2024/01/03 09:46:11;;;;;;;17.47;10.10;;;;;;;6.86;100.00;63652.09;5051903;28;20267;-55
2024/01/03 09:48:41;;;;;;;15.87;10.20;;;;;;;6.93;100.00;63659.75;5052019;28;20216;-56
2024/01/03 09:51:10;;;;;;;12.00;8.43;;;;;;;7.17;100.00;63685.91;5049155;28;20240;-55
2024/01/03 09:53:36;;;;;;;16.33;9.37;;;;;;;7.00;100.00;63667.38;5051820;28;20204;-56
2024/01/03 09:56:03;;;;;;;15.27;9.93;;;;;;;6.67;100.00;63632.47;5051617;28;20221;-55
2024/01/03 09:58:28;;;;;;;14.30;11.03;;;;;;;6.32;100.00;63593.78;5051649;28;20240;-54
2024/01/03 10:00:55;;;;;;;19.70;12.10;;;;;;;6.82;100.00;63647.72;5051775;28;20181;-56
2024/01/03 10:03:21;;;;;;;17.07;11.83;;;;;;;6.92;100.00;63654.19;5052049;28;20252;-56
2024/01/03 10:05:46;;;;;;;18.10;12.40;;;;;;;7.12;100.00;63677.94;5051567;28;20189;-55
2024/01/03 10:08:18;;;;;;;18.93;12.40;;;;;;;7.03;100.00;63671.16;5051656;28;20209;-54
2024/01/03 10:10:45;;;;;;;21.23;12.40;;;;;;;6.89;100.00;63655.38;5051711;28;20201;-55
2024/01/03 10:13:27;;;;;;;18.33;12.23;;;;;;;6.98;100.00;63662.69;5051705;28;20692;-55
2024/01/03 10:15:53;;;;;;;23.83;12.77;;;;;;;7.04;100.00;63669.22;5051566;28;20684;-55
2024/01/03 10:18:19;;;;;;;19.90;12.33;;;;;;;6.97;100.00;63661.59;5051388;28;20216;-56
2024/01/03 10:20:45;;;;;;;18.13;13.10;;;;;;;6.87;100.00;63653.19;5051483;28;20628;-56
2024/01/03 10:23:14;;;;;;;23.37;14.07;;;;;;;6.94;100.00;63660.81;5051303;28;20714;-56
2024/01/03 10:25:42;;;;;;;21.27;13.20;;;;;;;6.94;100.00;63661.38;5051262;28;20185;-56
2024/01/03 10:28:11;;;;;;;20.30;13.70;;;;;;;6.98;100.00;63665.19;5051114;28;20218;-55
2024/01/03 10:30:37;;;;;;;21.87;13.20;;;;;;;6.72;100.00;63635.44;5051195;28;20655;-55
2024/01/03 10:33:06;;;;;;;27.20;14.03;;;;;;;6.74;100.00;63639.56;5051078;28;20213;-57
2024/01/03 10:35:36;;;;;;;21.53;13.10;;;;;;;7.07;100.00;63675.00;5051185;28;20221;-56
2024/01/03 10:38:03;;;;;;;21.27;12.97;;;;;;;6.96;100.00;63663.00;5051054;28;20209;-56
2024/01/03 10:40:32;;;;;;;28.60;14.40;;;;;;;6.90;100.00;63662.00;5051081;28;20197;-55
2024/01/03 10:42:58;;;;;;;18.90;11.80;;;;;;;6.85;100.00;63651.53;5070021;22;20232;-55
2024/01/03 10:45:24;;;;;;;14.87;10.17;;;;;;;7.10;100.00;63678.25;5071118;28;20235;-56
2024/01/03 10:47:50;;;;;;;14.27;9.20;;;;;;;7.04;100.00;63666.72;5071007;28;20240;-55
2024/01/03 10:50:16;;;;;;;15.50;9.00;;;;;;;6.94;100.00;63660.81;5070951;28;20228;-55
2024/01/03 10:52:44;;;;;;;18.07;8.80;;;;;;;7.10;100.00;63678.81;5070895;28;20247;-55
2024/01/03 10:55:16;;;;;;;14.43;9.73;;;;;;;6.82;100.00;63645.22;5070793;28;20212;-55
2024/01/03 10:57:50;;;;;;;13.83;9.67;;;;;;;6.44;100.00;63607.41;5070821;28;20220;-55
2024/01/03 11:00:30;;;;;;;16.07;9.20;;;;;;;6.62;100.00;63622.03;5071079;28;20718;-56
2024/01/03 11:03:23;;;;;;;14.93;8.90;;;;;;;6.70;100.00;63635.75;5051665;28;20740;-54
2024/01/03 11:06:14;;;;;;;15.33;9.03;;;;;;;6.73;100.00;63641.50;5070734;28;20193;-58
2024/01/03 11:08:55;;;;;;;20.17;10.67;;;;;;;6.86;100.00;63652.09;5041475;28;20230;-55
2024/01/03 11:11:38;;;;;;;21.37;10.40;;;;;;;6.78;100.00;63641.41;5070751;28;20260;-55
2024/01/03 11:14:18;;;;;;;14.17;9.13;;;;;;;7.03;100.00;63671.16;5070364;28;20721;-54
2024/01/03 11:16:44;;;;;;;15.83;10.23;;;;;;;7.75;100.00;63746.13;5070262;28;20683;-54
2024/01/03 11:19:10;;;;;;;17.00;11.07;;;;;;;7.36;100.00;63707.19;5070535;28;20327;-54